JBU1612 TNCA-KFLL
Flight info
| Callsign | JBU1612 |
|---|---|
| Flight time | N/A |
| Altitude | 35000 |
| Route | SCAPA1F SCAPA L325 DAKES/N0474F340 DCT PIXAR UM348 PTA/N0468F360 UM348 ALBBE Y353 KNSLY Y350 ZQA OLAHS3 |
| Aircraft | A320/M-SDE3FGHIRWY/LB1 |
Departure
| Time | 2026-05-03 20:21 |
|---|---|
| Airport | Queen Beatrix International Airport (TNCA) |
Arrival
| Time | N/A |
|---|---|
| Airport | Fort Lauderdale Hollywood International Airport (KFLL) |
| Time | Latitude | Longitude | Altitude | Speed | Heading |
|---|---|---|---|---|---|
| 2026-05-03 20:15 | 12.50246 | -70.01223 | 46 ft | 14 kts | 283° |
| 2026-05-03 20:15 | 12.50271 | -70.01326 | 45 ft | 16 kts | 284° |
| 2026-05-03 20:15 | 12.50297 | -70.01439 | 46 ft | 17 kts | 283° |
| 2026-05-03 20:15 | 12.50324 | -70.01549 | 46 ft | 17 kts | 284° |
| 2026-05-03 20:16 | 12.50353 | -70.01671 | 46 ft | 18 kts | 283° |
| 2026-05-03 20:16 | 12.50382 | -70.01797 | 45 ft | 17 kts | 283° |
| 2026-05-03 20:16 | 12.50410 | -70.01910 | 45 ft | 17 kts | 283° |
| 2026-05-03 20:16 | 12.50437 | -70.02028 | 45 ft | 18 kts | 283° |
| 2026-05-03 20:17 | 12.50463 | -70.02138 | 44 ft | 16 kts | 284° |
| 2026-05-03 20:17 | 12.50489 | -70.02250 | 44 ft | 17 kts | 283° |
| 2026-05-03 20:17 | 12.50518 | -70.02371 | 41 ft | 18 kts | 283° |
| 2026-05-03 20:17 | 12.50549 | -70.02496 | 44 ft | 18 kts | 284° |
| 2026-05-03 20:18 | 12.50571 | -70.02596 | 44 ft | 10 kts | 283° |
| 2026-05-03 20:18 | 12.50574 | -70.02655 | 44 ft | 9 kts | 246° |
| 2026-05-03 20:18 | 12.50537 | -70.02724 | 40 ft | 13 kts | 242° |
| 2026-05-03 20:18 | 12.50531 | -70.02734 | 41 ft | 0 kts | 242° |
| 2026-05-03 20:20 | 12.50520 | -70.02756 | 40 ft | 10 kts | 242° |
| 2026-05-03 20:20 | 12.50443 | -70.02806 | 35 ft | 15 kts | 144° |
| 2026-05-03 20:20 | 12.50417 | -70.02705 | 35 ft | 17 kts | 103° |
| 2026-05-03 20:20 | 12.50356 | -70.02442 | 35 ft | 67 kts | 103° |
| 2026-05-03 20:21 | 12.50204 | -70.01799 | 43 ft | 117 kts | 103° |
| 2026-05-03 20:21 | 12.49980 | -70.00855 | 105 ft | 150 kts | 103° |
| 2026-05-03 20:21 | 12.49724 | -69.99835 | 707 ft | 148 kts | 105° |
| 2026-05-03 20:21 | 12.49475 | -69.98815 | 1318 ft | 149 kts | 101° |
| 2026-05-03 20:22 | 12.49219 | -69.97723 | 1667 ft | 168 kts | 101° |
| 2026-05-03 20:22 | 12.48933 | -69.96498 | 1957 ft | 191 kts | 101° |
| 2026-05-03 20:22 | 12.48610 | -69.95111 | 2307 ft | 211 kts | 99° |
| 2026-05-03 20:22 | 12.48717 | -69.93563 | 2608 ft | 236 kts | 66° |
| 2026-05-03 20:23 | 12.49885 | -69.92317 | 3153 ft | 257 kts | 31° |
| 2026-05-03 20:23 | 12.51614 | -69.91720 | 3964 ft | 267 kts | 16° |
| 2026-05-03 20:23 | 12.53461 | -69.91381 | 4709 ft | 274 kts | 12° |
| 2026-05-03 20:23 | 12.55367 | -69.91071 | 5383 ft | 279 kts | 12° |
| 2026-05-03 20:24 | 12.57283 | -69.90707 | 6148 ft | 281 kts | 14° |
| 2026-05-03 20:24 | 12.59199 | -69.90277 | 6879 ft | 283 kts | 15° |
| 2026-05-03 20:24 | 12.61115 | -69.89788 | 7581 ft | 285 kts | 16° |
| 2026-05-03 20:24 | 12.63015 | -69.89265 | 8259 ft | 288 kts | 19° |
| 2026-05-03 20:25 | 12.64949 | -69.88708 | 8937 ft | 290 kts | 20° |
| 2026-05-03 20:25 | 12.66901 | -69.88133 | 9605 ft | 293 kts | 18° |
| 2026-05-03 20:25 | 12.68874 | -69.87549 | 10180 ft | 299 kts | 20° |
| 2026-05-03 20:25 | 12.70945 | -69.86932 | 10319 ft | 320 kts | 18° |
| 2026-05-03 20:26 | 12.73150 | -69.86276 | 10441 ft | 340 kts | 19° |
| 2026-05-03 20:26 | 12.75485 | -69.85584 | 10549 ft | 358 kts | 19° |
| 2026-05-03 20:26 | 12.77938 | -69.84859 | 10673 ft | 375 kts | 19° |
| 2026-05-03 20:26 | 12.80441 | -69.84124 | 10996 ft | 382 kts | 18° |
| 2026-05-03 20:27 | 12.83010 | -69.83372 | 11474 ft | 386 kts | 19° |
| 2026-05-03 20:27 | 12.85604 | -69.82617 | 11973 ft | 389 kts | 18° |
| 2026-05-03 20:27 | 12.88213 | -69.81854 | 12461 ft | 392 kts | 18° |
| 2026-05-03 20:27 | 12.90844 | -69.81084 | 12952 ft | 395 kts | 18° |
| 2026-05-03 20:28 | 12.93494 | -69.80304 | 13465 ft | 397 kts | 19° |
| 2026-05-03 20:28 | 12.96088 | -69.79331 | 13936 ft | 397 kts | 28° |
| 2026-05-03 20:28 | 12.98465 | -69.77900 | 14367 ft | 397 kts | 38° |
| 2026-05-03 20:28 | 13.00629 | -69.76191 | 14810 ft | 399 kts | 40° |
| 2026-05-03 20:29 | 13.02837 | -69.74441 | 15236 ft | 403 kts | 40° |
| 2026-05-03 20:29 | 13.05069 | -69.72683 | 15668 ft | 406 kts | 40° |